Terminal Aerodrome Forecast
Issued by NWS

Home | Current Version | Previous Version | Text Only | Print | Product List | Glossary On
Versions: 1 2 3 4 5 6 7 8 9 10 11 12 13 14 15 16 17 18
000
FTUS46 KMTR 202300
TAFSJC
TAF
KSJC 202333Z 2100/2124 31011KT P6SM FEW015
     FM210300 30005KT P6SM FEW015
     FM210900 14005KT P6SM SCT015
     FM211800 32012KT P6SM FEW020=

USA.gov is the U.S. government's official web portal to all federal, state and local government web resources and services.